Flight Track Log - Related Links

Times and Time Zones

All times are in EDT time to prevent confusion due to time zone crossing. See the ASQ5953 flight status page for this flight to view local times or setup timezone preferences in your user account.

Time Position Orientation Groundspeed Altitude Reporting Facility
EDT Latitude Longitude Course Direction KTS MPH feet Rate Location/Type
Tue 06:22:27 PM 41.9667 -87.9500 345° North 166 191 2,400  Level Chicago TRACON
Tue 06:23:27 PM 42.0333 -87.9500 360° North 236 272 4,200 1,604 Climbing Chicago TRACON
Tue 06:24:08 PM 42.0725 -87.9675 342° North 242 278 5,100 524 Climbing Chicago Center
Tue 06:25:10 PM 42.1439 -87.9797 353° North 256 295 5,100 387 Level Chicago Center
Tue 06:26:00 PM 42.4419 -88.0473 346° North  Level FlightAware Approximate
Tue 06:26:12 PM 42.2197 -87.9936 352° North 256 295 5,900  Level Chicago Center
Tue 06:27:00 PM 42.5365 -88.0795 345° North  Level FlightAware Approximate
Tue 06:27:14 PM 42.2917 -88.0072 352° North 258 297 8,800  Level Chicago Center
Tue 06:28:16 PM 42.3589 -88.0086 359° North 260 299 10,500 1,452 Climbing Chicago Center
Tue 06:29:18 PM 42.4656 -87.9994 North 321 369 11,800 780 Climbing Chicago Center
Tue 06:30:19 PM 42.5542 -88.0425 340° North 334 384 12,100 98 Climbing Chicago Center
Tue 06:31:21 PM 42.6444 -88.0808 343° North 336 387 12,000 -48 Descending Chicago Center
Tue 06:32:23 PM 42.7339 -88.1181 343° North 336 387 12,000  Level Chicago Center
Tue 06:33:25 PM 42.8269 -88.1575 343° North 347 399 12,000 -387 Level Chicago Center
Tue 06:34:27 PM 42.8839 -88.2628 306° West 332 382 11,200 -871 Descending Chicago Center
Tue 06:35:29 PM 42.9125 -88.3769 289° West 330 380 10,200 -581 Descending Chicago Center
Tue 06:36:31 PM 42.9453 -88.5081 289° West 309 356 10,000 -97 Descending Chicago Center
Tue 06:37:33 PM 42.9700 -88.6150 288° West 298 343 10,000 -48 Level Chicago Center
Tue 06:38:35 PM 42.9889 -88.7172 284° West 279 321 9,900 -1,073 Descending Chicago Center
Tue 06:39:36 PM 42.9828 -88.8119 265° West 252 290 7,800 -1,854 Descending Chicago Center
Tue 06:40:38 PM 42.9794 -88.9050 267° West 250 288 6,100 -1,694 Descending Chicago Center
Tue 06:41:40 PM 42.9808 -88.9969 271° West 248 285 4,300 -1,548 Descending Chicago Center
Tue 06:42:42 PM 43.0206 -89.0639 309° West 235 270 2,900 -774 Descending Chicago Center
Tue 06:43:44 PM 43.0436 -89.1569 289° West 221 254 2,700 -145 Descending Chicago Center
Tue 06:44:46 PM 43.0647 -89.2244 293° West 208 239 2,600 -242 Descending Chicago Center
Tue 06:45:48 PM 43.0886 -89.2653 309° West 164 189 2,200 -532 Descending Chicago Center
Tue 06:46:50 PM 43.1133 -89.2969 317° Northwest 139 160 1,500 -532 Descending Chicago Center
Tue 06:47:52 PM 43.1408 -89.3331 316° Northwest 130 150 1,100 -387 Descending Chicago Center

Login

Don't have an account? Register now (free) for customized features, flight alerts, and more!